sensor_id;sensor_type;location;lat;lon;timestamp;temperature;humidity
33673;DHT22;20011;51.510;9.942;2023-08-06T00:01:15;18.30;99.90
33673;DHT22;20011;51.510;9.942;2023-08-06T00:03:42;18.30;99.90
33673;DHT22;20011;51.510;9.942;2023-08-06T00:06:09;18.30;99.90
33673;DHT22;20011;51.510;9.942;2023-08-06T00:08:36;18.30;99.90
33673;DHT22;20011;51.510;9.942;2023-08-06T00:11:03;18.30;99.90
33673;DHT22;20011;51.510;9.942;2023-08-06T00:13:30;18.30;99.90
33673;DHT22;20011;51.510;9.942;2023-08-06T00:16:09;18.30;99.90
33673;DHT22;20011;51.510;9.942;2023-08-06T00:18:36;18.20;99.90
33673;DHT22;20011;51.510;9.942;2023-08-06T00:21:03;18.20;99.90
33673;DHT22;20011;51.510;9.942;2023-08-06T00:23:30;18.20;99.90
33673;DHT22;20011;51.510;9.942;2023-08-06T00:25:57;18.20;99.90
33673;DHT22;20011;51.510;9.942;2023-08-06T00:28:24;18.20;99.90
33673;DHT22;20011;51.510;9.942;2023-08-06T00:30:55;18.20;99.90
33673;DHT22;20011;51.510;9.942;2023-08-06T00:33:23;18.20;99.90
33673;DHT22;20011;51.510;9.942;2023-08-06T00:35:51;18.20;99.90
33673;DHT22;20011;51.510;9.942;2023-08-06T00:38:18;18.20;99.90
33673;DHT22;20011;51.510;9.942;2023-08-06T00:40:44;18.20;99.90
33673;DHT22;20011;51.510;9.942;2023-08-06T00:43:11;18.20;99.90
33673;DHT22;20011;51.510;9.942;2023-08-06T00:45:38;18.20;99.90
33673;DHT22;20011;51.510;9.942;2023-08-06T00:48:06;18.20;99.90
33673;DHT22;20011;51.510;9.942;2023-08-06T00:50:34;18.10;99.90
33673;DHT22;20011;51.510;9.942;2023-08-06T00:53:01;18.20;99.90
33673;DHT22;20011;51.510;9.942;2023-08-06T00:55:29;18.10;99.90
33673;DHT22;20011;51.510;9.942;2023-08-06T00:57:56;18.10;99.90
33673;DHT22;20011;51.510;9.942;2023-08-06T01:00:24;18.10;99.90
33673;DHT22;20011;51.510;9.942;2023-08-06T01:02:52;18.10;99.90
33673;DHT22;20011;51.510;9.942;2023-08-06T01:05:21;18.10;99.90
33673;DHT22;20011;51.510;9.942;2023-08-06T01:08:28;18.10;99.90
33673;DHT22;20011;51.510;9.942;2023-08-06T01:14:12;18.10;99.90
33673;DHT22;20011;51.510;9.942;2023-08-06T01:16:42;18.00;99.90
33673;DHT22;20011;51.510;9.942;2023-08-06T01:19:18;18.00;99.90
33673;DHT22;20011;51.510;9.942;2023-08-06T01:21:45;18.10;99.90
33673;DHT22;20011;51.510;9.942;2023-08-06T01:24:12;18.10;99.90
33673;DHT22;20011;51.510;9.942;2023-08-06T01:26:48;18.00;99.90
33673;DHT22;20011;51.510;9.942;2023-08-06T01:29:31;18.00;99.90
33673;DHT22;20011;51.510;9.942;2023-08-06T01:32:02;18.00;99.90
33673;DHT22;20011;51.510;9.942;2023-08-06T01:34:32;18.00;99.90
33673;DHT22;20011;51.510;9.942;2023-08-06T01:37:01;18.00;99.90
33673;DHT22;20011;51.510;9.942;2023-08-06T01:39:28;18.00;99.90
33673;DHT22;20011;51.510;9.942;2023-08-06T01:41:55;18.00;99.90
33673;DHT22;20011;51.510;9.942;2023-08-06T01:44:22;18.00;99.90
33673;DHT22;20011;51.510;9.942;2023-08-06T01:46:49;18.00;99.90
33673;DHT22;20011;51.510;9.942;2023-08-06T01:49:16;18.00;99.90
33673;DHT22;20011;51.510;9.942;2023-08-06T01:51:42;18.00;99.90
33673;DHT22;20011;51.510;9.942;2023-08-06T01:54:09;18.00;99.90
33673;DHT22;20011;51.510;9.942;2023-08-06T01:56:37;18.00;99.90
33673;DHT22;20011;51.510;9.942;2023-08-06T01:59:04;18.00;99.90
33673;DHT22;20011;51.510;9.942;2023-08-06T02:01:31;18.00;99.90
33673;DHT22;20011;51.510;9.942;2023-08-06T02:03:58;18.00;99.90
33673;DHT22;20011;51.510;9.942;2023-08-06T02:06:25;18.00;99.90
33673;DHT22;20011;51.510;9.942;2023-08-06T02:08:52;18.00;99.90
33673;DHT22;20011;51.510;9.942;2023-08-06T02:11:19;18.00;99.90
33673;DHT22;20011;51.510;9.942;2023-08-06T02:13:46;18.00;99.90
33673;DHT22;20011;51.510;9.942;2023-08-06T02:16:18;18.00;99.90
33673;DHT22;20011;51.510;9.942;2023-08-06T02:18:45;18.00;99.90
33673;DHT22;20011;51.510;9.942;2023-08-06T02:21:11;18.00;99.90
33673;DHT22;20011;51.510;9.942;2023-08-06T02:23:38;18.00;99.90
33673;DHT22;20011;51.510;9.942;2023-08-06T02:26:05;18.00;99.90
33673;DHT22;20011;51.510;9.942;2023-08-06T02:28:32;18.00;99.90
33673;DHT22;20011;51.510;9.942;2023-08-06T02:30:59;18.00;99.90
33673;DHT22;20011;51.510;9.942;2023-08-06T02:33:28;17.90;99.90
33673;DHT22;20011;51.510;9.942;2023-08-06T02:36:02;18.00;99.90
33673;DHT22;20011;51.510;9.942;2023-08-06T02:38:31;17.90;99.90
33673;DHT22;20011;51.510;9.942;2023-08-06T02:40:58;17.90;99.90
33673;DHT22;20011;51.510;9.942;2023-08-06T02:43:26;17.90;99.90
33673;DHT22;20011;51.510;9.942;2023-08-06T02:45:57;18.00;99.90
33673;DHT22;20011;51.510;9.942;2023-08-06T02:48:25;17.90;99.90
33673;DHT22;20011;51.510;9.942;2023-08-06T02:50:52;17.90;99.90
33673;DHT22;20011;51.510;9.942;2023-08-06T02:53:20;17.90;99.90
33673;DHT22;20011;51.510;9.942;2023-08-06T02:55:49;17.90;99.90
33673;DHT22;20011;51.510;9.942;2023-08-06T02:58:19;17.90;99.90
33673;DHT22;20011;51.510;9.942;2023-08-06T03:01:03;17.90;99.90
33673;DHT22;20011;51.510;9.942;2023-08-06T03:03:37;17.90;99.90
33673;DHT22;20011;51.510;9.942;2023-08-06T03:06:06;17.90;99.90
33673;DHT22;20011;51.510;9.942;2023-08-06T03:08:45;17.80;99.90
33673;DHT22;20011;51.510;9.942;2023-08-06T03:11:12;17.90;99.90
33673;DHT22;20011;51.510;9.942;2023-08-06T03:13:40;17.80;99.90
33673;DHT22;20011;51.510;9.942;2023-08-06T03:16:07;17.80;99.90
33673;DHT22;20011;51.510;9.942;2023-08-06T03:18:34;17.80;99.90
33673;DHT22;20011;51.510;9.942;2023-08-06T03:21:04;17.80;99.90
33673;DHT22;20011;51.510;9.942;2023-08-06T03:23:32;17.80;99.90
33673;DHT22;20011;51.510;9.942;2023-08-06T03:26:03;17.70;99.90
33673;DHT22;20011;51.510;9.942;2023-08-06T03:28:32;17.70;99.90
33673;DHT22;20011;51.510;9.942;2023-08-06T03:31:03;17.70;99.90
33673;DHT22;20011;51.510;9.942;2023-08-06T03:33:39;17.70;99.90
33673;DHT22;20011;51.510;9.942;2023-08-06T03:36:10;17.70;99.90
33673;DHT22;20011;51.510;9.942;2023-08-06T03:38:37;17.70;99.90
33673;DHT22;20011;51.510;9.942;2023-08-06T03:41:06;17.70;99.90
33673;DHT22;20011;51.510;9.942;2023-08-06T03:43:34;17.70;99.90
33673;DHT22;20011;51.510;9.942;2023-08-06T03:46:05;17.70;99.90
33673;DHT22;20011;51.510;9.942;2023-08-06T03:48:33;17.70;99.90
33673;DHT22;20011;51.510;9.942;2023-08-06T03:51:00;17.70;99.90
33673;DHT22;20011;51.510;9.942;2023-08-06T03:53:28;17.60;99.90
33673;DHT22;20011;51.510;9.942;2023-08-06T03:55:55;17.60;99.90
33673;DHT22;20011;51.510;9.942;2023-08-06T03:58:26;17.60;99.90
33673;DHT22;20011;51.510;9.942;2023-08-06T04:01:00;17.60;99.90
33673;DHT22;20011;51.510;9.942;2023-08-06T04:03:33;17.60;99.90
33673;DHT22;20011;51.510;9.942;2023-08-06T04:06:02;17.60;99.90
33673;DHT22;20011;51.510;9.942;2023-08-06T04:08:30;17.60;99.90
33673;DHT22;20011;51.510;9.942;2023-08-06T04:10:56;17.70;99.90
33673;DHT22;20011;51.510;9.942;2023-08-06T04:13:23;17.70;99.90
33673;DHT22;20011;51.510;9.942;2023-08-06T04:15:50;17.70;99.90
33673;DHT22;20011;51.510;9.942;2023-08-06T04:18:18;17.70;99.90
33673;DHT22;20011;51.510;9.942;2023-08-06T04:20:46;17.70;99.90
33673;DHT22;20011;51.510;9.942;2023-08-06T04:23:14;17.60;99.90
33673;DHT22;20011;51.510;9.942;2023-08-06T04:25:41;17.60;99.90
33673;DHT22;20011;51.510;9.942;2023-08-06T04:28:08;17.60;99.90
33673;DHT22;20011;51.510;9.942;2023-08-06T04:30:37;17.70;99.90
33673;DHT22;20011;51.510;9.942;2023-08-06T04:33:04;17.70;99.90
33673;DHT22;20011;51.510;9.942;2023-08-06T04:35:32;17.60;99.90
33673;DHT22;20011;51.510;9.942;2023-08-06T04:38:00;17.60;99.90
33673;DHT22;20011;51.510;9.942;2023-08-06T04:40:27;17.60;99.90
33673;DHT22;20011;51.510;9.942;2023-08-06T04:42:54;17.60;99.90
33673;DHT22;20011;51.510;9.942;2023-08-06T04:45:22;17.60;99.90
33673;DHT22;20011;51.510;9.942;2023-08-06T04:47:51;17.60;99.90
33673;DHT22;20011;51.510;9.942;2023-08-06T04:50:19;17.60;99.90
33673;DHT22;20011;51.510;9.942;2023-08-06T04:52:46;17.60;99.90
33673;DHT22;20011;51.510;9.942;2023-08-06T04:55:13;17.60;99.90
33673;DHT22;20011;51.510;9.942;2023-08-06T04:57:39;17.70;99.90
33673;DHT22;20011;51.510;9.942;2023-08-06T05:00:07;17.60;99.90
33673;DHT22;20011;51.510;9.942;2023-08-06T05:02:34;17.60;99.90
33673;DHT22;20011;51.510;9.942;2023-08-06T05:05:01;17.60;99.90
33673;DHT22;20011;51.510;9.942;2023-08-06T05:07:28;17.60;99.90
33673;DHT22;20011;51.510;9.942;2023-08-06T05:09:55;17.60;99.90
33673;DHT22;20011;51.510;9.942;2023-08-06T05:12:22;17.60;99.90
33673;DHT22;20011;51.510;9.942;2023-08-06T05:14:49;17.60;99.90
33673;DHT22;20011;51.510;9.942;2023-08-06T05:17:16;17.60;99.90
33673;DHT22;20011;51.510;9.942;2023-08-06T05:19:43;17.60;99.90
33673;DHT22;20011;51.510;9.942;2023-08-06T05:22:09;17.60;99.90
33673;DHT22;20011;51.510;9.942;2023-08-06T05:24:37;17.60;99.90
33673;DHT22;20011;51.510;9.942;2023-08-06T05:27:04;17.60;99.90
33673;DHT22;20011;51.510;9.942;2023-08-06T05:29:31;17.60;99.90
33673;DHT22;20011;51.510;9.942;2023-08-06T05:31:58;17.60;99.90
33673;DHT22;20011;51.510;9.942;2023-08-06T05:34:25;17.60;99.90
33673;DHT22;20011;51.510;9.942;2023-08-06T05:36:51;17.60;99.90
33673;DHT22;20011;51.510;9.942;2023-08-06T05:39:19;17.60;99.90
33673;DHT22;20011;51.510;9.942;2023-08-06T05:41:46;17.60;99.90
33673;DHT22;20011;51.510;9.942;2023-08-06T05:44:13;17.60;99.90
33673;DHT22;20011;51.510;9.942;2023-08-06T05:46:40;17.60;99.90
33673;DHT22;20011;51.510;9.942;2023-08-06T05:49:07;17.70;99.90
33673;DHT22;20011;51.510;9.942;2023-08-06T05:51:33;17.70;99.90
33673;DHT22;20011;51.510;9.942;2023-08-06T05:54:00;17.70;99.90
33673;DHT22;20011;51.510;9.942;2023-08-06T05:56:27;17.70;99.90
33673;DHT22;20011;51.510;9.942;2023-08-06T05:58:54;17.80;99.90
33673;DHT22;20011;51.510;9.942;2023-08-06T06:07:27;17.80;99.90
33673;DHT22;20011;51.510;9.942;2023-08-06T06:09:54;17.80;99.90
33673;DHT22;20011;51.510;9.942;2023-08-06T06:12:21;17.80;99.90
33673;DHT22;20011;51.510;9.942;2023-08-06T06:14:49;17.80;99.90
33673;DHT22;20011;51.510;9.942;2023-08-06T06:17:16;17.90;99.90
33673;DHT22;20011;51.510;9.942;2023-08-06T06:19:42;17.90;99.90
33673;DHT22;20011;51.510;9.942;2023-08-06T06:22:09;17.90;99.90
33673;DHT22;20011;51.510;9.942;2023-08-06T06:24:36;17.90;99.90
33673;DHT22;20011;51.510;9.942;2023-08-06T06:27:03;17.90;99.90
33673;DHT22;20011;51.510;9.942;2023-08-06T06:29:31;17.90;99.90
33673;DHT22;20011;51.510;9.942;2023-08-06T06:31:57;18.00;99.90
33673;DHT22;20011;51.510;9.942;2023-08-06T06:34:24;18.00;99.90
33673;DHT22;20011;51.510;9.942;2023-08-06T06:36:51;18.00;99.90
33673;DHT22;20011;51.510;9.942;2023-08-06T06:39:18;18.00;99.90
33673;DHT22;20011;51.510;9.942;2023-08-06T06:41:45;18.00;99.90
33673;DHT22;20011;51.510;9.942;2023-08-06T06:44:22;18.10;99.90
33673;DHT22;20011;51.510;9.942;2023-08-06T06:46:49;18.10;99.90
33673;DHT22;20011;51.510;9.942;2023-08-06T06:49:16;18.10;99.90
33673;DHT22;20011;51.510;9.942;2023-08-06T06:51:43;18.10;99.90
33673;DHT22;20011;51.510;9.942;2023-08-06T06:54:10;18.10;99.90
33673;DHT22;20011;51.510;9.942;2023-08-06T06:56:38;18.20;99.90
33673;DHT22;20011;51.510;9.942;2023-08-06T06:59:05;18.20;99.90
33673;DHT22;20011;51.510;9.942;2023-08-06T07:01:32;18.30;99.90
33673;DHT22;20011;51.510;9.942;2023-08-06T07:03:59;18.30;99.90
33673;DHT22;20011;51.510;9.942;2023-08-06T07:06:31;18.30;99.90
33673;DHT22;20011;51.510;9.942;2023-08-06T07:08:58;18.30;99.90
33673;DHT22;20011;51.510;9.942;2023-08-06T07:11:25;18.30;99.90
33673;DHT22;20011;51.510;9.942;2023-08-06T07:13:58;18.40;99.90
33673;DHT22;20011;51.510;9.942;2023-08-06T07:16:25;18.40;99.90
33673;DHT22;20011;51.510;9.942;2023-08-06T07:18:54;18.40;99.90
33673;DHT22;20011;51.510;9.942;2023-08-06T07:21:21;18.40;99.90
33673;DHT22;20011;51.510;9.942;2023-08-06T07:23:48;18.40;99.90
33673;DHT22;20011;51.510;9.942;2023-08-06T07:26:18;18.40;99.90
33673;DHT22;20011;51.510;9.942;2023-08-06T07:28:45;18.40;99.90
33673;DHT22;20011;51.510;9.942;2023-08-06T07:31:12;18.40;99.90
33673;DHT22;20011;51.510;9.942;2023-08-06T07:33:39;18.40;99.90
33673;DHT22;20011;51.510;9.942;2023-08-06T07:36:11;18.40;99.90
33673;DHT22;20011;51.510;9.942;2023-08-06T07:38:39;18.40;99.90
33673;DHT22;20011;51.510;9.942;2023-08-06T07:41:06;18.50;99.90
33673;DHT22;20011;51.510;9.942;2023-08-06T07:43:33;18.50;99.90
33673;DHT22;20011;51.510;9.942;2023-08-06T07:46:00;18.50;99.90
33673;DHT22;20011;51.510;9.942;2023-08-06T07:48:27;18.50;99.90
33673;DHT22;20011;51.510;9.942;2023-08-06T07:50:55;18.50;99.90
33673;DHT22;20011;51.510;9.942;2023-08-06T07:53:23;18.50;99.90
33673;DHT22;20011;51.510;9.942;2023-08-06T07:55:51;18.50;99.90
33673;DHT22;20011;51.510;9.942;2023-08-06T07:58:19;18.80;99.90
33673;DHT22;20011;51.510;9.942;2023-08-06T08:00:46;18.50;99.90
33673;DHT22;20011;51.510;9.942;2023-08-06T08:03:14;18.50;99.90
33673;DHT22;20011;51.510;9.942;2023-08-06T08:05:43;18.60;99.90
33673;DHT22;20011;51.510;9.942;2023-08-06T08:08:10;18.60;99.90
33673;DHT22;20011;51.510;9.942;2023-08-06T08:10:37;18.60;99.90
33673;DHT22;20011;51.510;9.942;2023-08-06T08:13:05;18.70;99.90
33673;DHT22;20011;51.510;9.942;2023-08-06T08:15:34;18.70;99.90
33673;DHT22;20011;51.510;9.942;2023-08-06T08:18:01;18.70;99.90
33673;DHT22;20011;51.510;9.942;2023-08-06T08:20:28;18.70;99.90
33673;DHT22;20011;51.510;9.942;2023-08-06T08:22:59;18.80;99.90
33673;DHT22;20011;51.510;9.942;2023-08-06T08:25:27;18.80;99.90
33673;DHT22;20011;51.510;9.942;2023-08-06T08:27:57;18.70;99.90
33673;DHT22;20011;51.510;9.942;2023-08-06T08:30:24;18.80;99.90
33673;DHT22;20011;51.510;9.942;2023-08-06T08:32:52;18.80;99.90
33673;DHT22;20011;51.510;9.942;2023-08-06T08:35:19;18.90;99.90
33673;DHT22;20011;51.510;9.942;2023-08-06T08:37:46;18.90;99.90
33673;DHT22;20011;51.510;9.942;2023-08-06T08:40:14;18.90;99.90
33673;DHT22;20011;51.510;9.942;2023-08-06T08:42:42;19.00;99.90
33673;DHT22;20011;51.510;9.942;2023-08-06T08:45:13;19.00;99.90
33673;DHT22;20011;51.510;9.942;2023-08-06T08:47:44;19.00;99.90
33673;DHT22;20011;51.510;9.942;2023-08-06T08:50:11;19.00;99.90
33673;DHT22;20011;51.510;9.942;2023-08-06T08:52:38;19.10;99.90
33673;DHT22;20011;51.510;9.942;2023-08-06T08:55:10;19.10;99.90
33673;DHT22;20011;51.510;9.942;2023-08-06T08:57:36;19.20;99.90
33673;DHT22;20011;51.510;9.942;2023-08-06T09:00:04;19.20;99.90
33673;DHT22;20011;51.510;9.942;2023-08-06T09:02:33;19.20;99.90
33673;DHT22;20011;51.510;9.942;2023-08-06T09:05:01;19.30;99.90
33673;DHT22;20011;51.510;9.942;2023-08-06T09:07:34;19.30;99.90
33673;DHT22;20011;51.510;9.942;2023-08-06T09:10:03;19.30;99.90
33673;DHT22;20011;51.510;9.942;2023-08-06T09:12:31;19.30;99.90
33673;DHT22;20011;51.510;9.942;2023-08-06T09:14:58;19.30;99.90
33673;DHT22;20011;51.510;9.942;2023-08-06T09:17:25;19.30;99.90
33673;DHT22;20011;51.510;9.942;2023-08-06T09:19:52;19.30;99.90
33673;DHT22;20011;51.510;9.942;2023-08-06T09:22:19;19.30;99.90
33673;DHT22;20011;51.510;9.942;2023-08-06T09:24:46;19.30;99.90
33673;DHT22;20011;51.510;9.942;2023-08-06T09:27:14;19.30;99.90
33673;DHT22;20011;51.510;9.942;2023-08-06T09:29:42;19.30;99.90
33673;DHT22;20011;51.510;9.942;2023-08-06T09:32:09;19.40;99.90
33673;DHT22;20011;51.510;9.942;2023-08-06T09:34:39;19.40;99.90
33673;DHT22;20011;51.510;9.942;2023-08-06T09:37:09;19.40;99.90
33673;DHT22;20011;51.510;9.942;2023-08-06T09:39:39;19.40;99.90
33673;DHT22;20011;51.510;9.942;2023-08-06T09:42:06;19.40;99.90
33673;DHT22;20011;51.510;9.942;2023-08-06T09:44:34;19.50;99.90
33673;DHT22;20011;51.510;9.942;2023-08-06T09:47:03;19.50;99.90
33673;DHT22;20011;51.510;9.942;2023-08-06T09:52:00;19.50;99.90
33673;DHT22;20011;51.510;9.942;2023-08-06T09:54:27;19.50;99.90
33673;DHT22;20011;51.510;9.942;2023-08-06T09:56:57;19.60;99.90
33673;DHT22;20011;51.510;9.942;2023-08-06T09:59:24;19.60;99.90
33673;DHT22;20011;51.510;9.942;2023-08-06T10:01:54;19.60;99.90
33673;DHT22;20011;51.510;9.942;2023-08-06T10:04:23;19.60;99.90
33673;DHT22;20011;51.510;9.942;2023-08-06T10:06:54;19.60;99.90
33673;DHT22;20011;51.510;9.942;2023-08-06T10:09:21;19.60;99.90
33673;DHT22;20011;51.510;9.942;2023-08-06T10:11:50;19.60;99.90
33673;DHT22;20011;51.510;9.942;2023-08-06T10:14:44;19.60;99.90
33673;DHT22;20011;51.510;9.942;2023-08-06T10:17:12;19.60;99.90
33673;DHT22;20011;51.510;9.942;2023-08-06T10:19:39;19.50;99.90
33673;DHT22;20011;51.510;9.942;2023-08-06T10:22:14;19.50;99.90
33673;DHT22;20011;51.510;9.942;2023-08-06T10:24:56;19.50;99.90
33673;DHT22;20011;51.510;9.942;2023-08-06T10:30:23;19.50;99.90
33673;DHT22;20011;51.510;9.942;2023-08-06T10:32:55;19.50;99.90
33673;DHT22;20011;51.510;9.942;2023-08-06T10:38:08;19.50;99.90
33673;DHT22;20011;51.510;9.942;2023-08-06T10:40:39;19.50;99.90
33673;DHT22;20011;51.510;9.942;2023-08-06T10:43:06;19.50;99.90
33673;DHT22;20011;51.510;9.942;2023-08-06T10:45:36;19.60;99.90
33673;DHT22;20011;51.510;9.942;2023-08-06T10:48:04;19.60;99.90
33673;DHT22;20011;51.510;9.942;2023-08-06T10:50:32;19.60;99.90
33673;DHT22;20011;51.510;9.942;2023-08-06T10:53:04;19.60;99.90
33673;DHT22;20011;51.510;9.942;2023-08-06T10:55:32;19.60;99.90
33673;DHT22;20011;51.510;9.942;2023-08-06T10:57:59;19.70;99.90
33673;DHT22;20011;51.510;9.942;2023-08-06T11:00:26;19.60;99.90
33673;DHT22;20011;51.510;9.942;2023-08-06T11:02:54;19.60;99.90
33673;DHT22;20011;51.510;9.942;2023-08-06T11:05:22;19.60;99.90
33673;DHT22;20011;51.510;9.942;2023-08-06T11:07:49;19.60;99.90
33673;DHT22;20011;51.510;9.942;2023-08-06T11:10:17;19.60;99.90
33673;DHT22;20011;51.510;9.942;2023-08-06T11:12:44;19.60;99.90
33673;DHT22;20011;51.510;9.942;2023-08-06T11:15:12;19.60;99.90
33673;DHT22;20011;51.510;9.942;2023-08-06T11:17:40;19.60;99.90
33673;DHT22;20011;51.510;9.942;2023-08-06T11:20:09;19.60;99.90
33673;DHT22;20011;51.510;9.942;2023-08-06T11:22:37;19.60;99.90
33673;DHT22;20011;51.510;9.942;2023-08-06T11:25:06;19.70;99.90
33673;DHT22;20011;51.510;9.942;2023-08-06T11:27:33;19.60;99.90
33673;DHT22;20011;51.510;9.942;2023-08-06T11:30:00;19.60;99.90
33673;DHT22;20011;51.510;9.942;2023-08-06T11:32:27;19.70;99.90
33673;DHT22;20011;51.510;9.942;2023-08-06T11:34:55;19.70;99.90
33673;DHT22;20011;51.510;9.942;2023-08-06T11:37:23;19.70;99.90
33673;DHT22;20011;51.510;9.942;2023-08-06T11:39:52;19.70;99.90
33673;DHT22;20011;51.510;9.942;2023-08-06T11:42:20;19.70;99.90
33673;DHT22;20011;51.510;9.942;2023-08-06T11:44:47;19.70;99.90
33673;DHT22;20011;51.510;9.942;2023-08-06T11:47:16;19.80;99.90
33673;DHT22;20011;51.510;9.942;2023-08-06T11:49:46;19.80;99.90
33673;DHT22;20011;51.510;9.942;2023-08-06T11:52:15;19.80;99.90
33673;DHT22;20011;51.510;9.942;2023-08-06T11:54:42;19.90;99.90
33673;DHT22;20011;51.510;9.942;2023-08-06T11:57:11;19.90;99.90
33673;DHT22;20011;51.510;9.942;2023-08-06T11:59:39;20.00;99.90
33673;DHT22;20011;51.510;9.942;2023-08-06T12:02:08;20.00;99.90
33673;DHT22;20011;51.510;9.942;2023-08-06T12:04:59;20.10;99.90
33673;DHT22;20011;51.510;9.942;2023-08-06T12:07:29;20.10;99.90
33673;DHT22;20011;51.510;9.942;2023-08-06T12:09:57;20.20;99.90
33673;DHT22;20011;51.510;9.942;2023-08-06T12:12:24;20.10;99.90
33673;DHT22;20011;51.510;9.942;2023-08-06T12:14:51;20.10;99.90
33673;DHT22;20011;51.510;9.942;2023-08-06T12:17:18;20.20;99.90
33673;DHT22;20011;51.510;9.942;2023-08-06T12:19:46;20.20;99.90
33673;DHT22;20011;51.510;9.942;2023-08-06T12:22:14;20.20;99.90
33673;DHT22;20011;51.510;9.942;2023-08-06T12:24:46;20.10;99.90
33673;DHT22;20011;51.510;9.942;2023-08-06T12:27:13;20.20;99.90
33673;DHT22;20011;51.510;9.942;2023-08-06T12:29:43;20.10;99.90
33673;DHT22;20011;51.510;9.942;2023-08-06T12:32:11;20.10;99.90
33673;DHT22;20011;51.510;9.942;2023-08-06T12:34:39;20.00;99.90
33673;DHT22;20011;51.510;9.942;2023-08-06T12:37:18;20.10;99.90
33673;DHT22;20011;51.510;9.942;2023-08-06T12:39:45;20.00;99.90
33673;DHT22;20011;51.510;9.942;2023-08-06T12:42:12;20.00;99.90
33673;DHT22;20011;51.510;9.942;2023-08-06T12:44:39;20.00;99.90
33673;DHT22;20011;51.510;9.942;2023-08-06T12:47:09;20.00;99.90
33673;DHT22;20011;51.510;9.942;2023-08-06T12:49:36;20.10;99.90
33673;DHT22;20011;51.510;9.942;2023-08-06T12:52:03;20.00;99.90
33673;DHT22;20011;51.510;9.942;2023-08-06T12:54:33;20.10;99.90
33673;DHT22;20011;51.510;9.942;2023-08-06T12:57:05;20.10;99.90
33673;DHT22;20011;51.510;9.942;2023-08-06T12:59:33;20.10;99.90
33673;DHT22;20011;51.510;9.942;2023-08-06T13:02:00;20.10;99.90
33673;DHT22;20011;51.510;9.942;2023-08-06T13:04:27;20.10;99.90
33673;DHT22;20011;51.510;9.942;2023-08-06T13:06:55;20.10;99.90
33673;DHT22;20011;51.510;9.942;2023-08-06T13:09:21;20.10;99.90
33673;DHT22;20011;51.510;9.942;2023-08-06T13:11:48;20.10;99.90
33673;DHT22;20011;51.510;9.942;2023-08-06T13:14:17;20.20;99.90
33673;DHT22;20011;51.510;9.942;2023-08-06T13:16:44;20.20;99.90
33673;DHT22;20011;51.510;9.942;2023-08-06T13:19:12;20.20;99.90
33673;DHT22;20011;51.510;9.942;2023-08-06T13:24:09;20.20;99.90
33673;DHT22;20011;51.510;9.942;2023-08-06T13:26:36;20.20;99.90
33673;DHT22;20011;51.510;9.942;2023-08-06T13:29:02;20.20;99.90
33673;DHT22;20011;51.510;9.942;2023-08-06T13:31:29;20.20;99.90
33673;DHT22;20011;51.510;9.942;2023-08-06T13:33:57;20.10;99.90
33673;DHT22;20011;51.510;9.942;2023-08-06T13:36:27;20.10;99.90
33673;DHT22;20011;51.510;9.942;2023-08-06T13:38:54;20.10;99.90
33673;DHT22;20011;51.510;9.942;2023-08-06T13:41:21;20.00;99.90
33673;DHT22;20011;51.510;9.942;2023-08-06T13:43:48;19.90;99.90
33673;DHT22;20011;51.510;9.942;2023-08-06T13:46:15;19.90;99.90
33673;DHT22;20011;51.510;9.942;2023-08-06T13:48:46;19.80;99.90
33673;DHT22;20011;51.510;9.942;2023-08-06T13:51:13;19.60;99.90
33673;DHT22;20011;51.510;9.942;2023-08-06T13:53:40;19.50;99.90
33673;DHT22;20011;51.510;9.942;2023-08-06T13:56:09;19.30;99.90
33673;DHT22;20011;51.510;9.942;2023-08-06T13:58:41;19.20;99.90
33673;DHT22;20011;51.510;9.942;2023-08-06T14:01:10;19.10;99.90
33673;DHT22;20011;51.510;9.942;2023-08-06T14:03:37;18.90;99.90
33673;DHT22;20011;51.510;9.942;2023-08-06T14:06:04;18.80;99.90
33673;DHT22;20011;51.510;9.942;2023-08-06T14:08:31;18.70;99.90
33673;DHT22;20011;51.510;9.942;2023-08-06T14:10:58;18.60;99.90
33673;DHT22;20011;51.510;9.942;2023-08-06T14:13:25;18.60;99.90
33673;DHT22;20011;51.510;9.942;2023-08-06T14:15:52;18.60;99.90
33673;DHT22;20011;51.510;9.942;2023-08-06T14:18:19;18.50;99.90
33673;DHT22;20011;51.510;9.942;2023-08-06T14:20:46;18.40;99.90
33673;DHT22;20011;51.510;9.942;2023-08-06T14:23:13;18.40;99.90
33673;DHT22;20011;51.510;9.942;2023-08-06T14:25:40;18.30;99.90
33673;DHT22;20011;51.510;9.942;2023-08-06T14:28:07;18.30;99.90
33673;DHT22;20011;51.510;9.942;2023-08-06T14:30:34;18.20;99.90
33673;DHT22;20011;51.510;9.942;2023-08-06T14:33:02;18.20;99.90
33673;DHT22;20011;51.510;9.942;2023-08-06T14:35:47;18.10;99.90
33673;DHT22;20011;51.510;9.942;2023-08-06T14:38:14;18.10;99.90
33673;DHT22;20011;51.510;9.942;2023-08-06T14:40:41;18.20;99.90
33673;DHT22;20011;51.510;9.942;2023-08-06T14:43:09;18.10;99.90
33673;DHT22;20011;51.510;9.942;2023-08-06T14:45:39;18.10;99.90
33673;DHT22;20011;51.510;9.942;2023-08-06T14:48:07;18.10;99.90
33673;DHT22;20011;51.510;9.942;2023-08-06T14:50:34;18.10;99.90
33673;DHT22;20011;51.510;9.942;2023-08-06T14:53:02;18.10;99.90
33673;DHT22;20011;51.510;9.942;2023-08-06T14:55:31;18.10;99.90
33673;DHT22;20011;51.510;9.942;2023-08-06T14:58:01;18.10;99.90
33673;DHT22;20011;51.510;9.942;2023-08-06T15:00:28;18.10;99.90
33673;DHT22;20011;51.510;9.942;2023-08-06T15:02:55;18.10;99.90
33673;DHT22;20011;51.510;9.942;2023-08-06T15:05:22;18.20;99.90
33673;DHT22;20011;51.510;9.942;2023-08-06T15:07:49;18.10;99.90
33673;DHT22;20011;51.510;9.942;2023-08-06T15:10:17;18.20;99.90
33673;DHT22;20011;51.510;9.942;2023-08-06T15:12:46;18.20;99.90
33673;DHT22;20011;51.510;9.942;2023-08-06T15:15:13;18.20;99.90
33673;DHT22;20011;51.510;9.942;2023-08-06T15:17:40;18.20;99.90
33673;DHT22;20011;51.510;9.942;2023-08-06T15:20:08;18.20;99.90
33673;DHT22;20011;51.510;9.942;2023-08-06T15:22:35;18.20;99.90
33673;DHT22;20011;51.510;9.942;2023-08-06T15:25:02;18.20;99.90
33673;DHT22;20011;51.510;9.942;2023-08-06T15:27:31;18.20;99.90
33673;DHT22;20011;51.510;9.942;2023-08-06T15:29:59;18.20;99.90
33673;DHT22;20011;51.510;9.942;2023-08-06T15:32:26;18.20;99.90
33673;DHT22;20011;51.510;9.942;2023-08-06T15:34:54;18.20;99.90
33673;DHT22;20011;51.510;9.942;2023-08-06T15:37:22;18.10;99.90
33673;DHT22;20011;51.510;9.942;2023-08-06T15:39:49;18.10;99.90
33673;DHT22;20011;51.510;9.942;2023-08-06T15:42:16;18.10;99.90
33673;DHT22;20011;51.510;9.942;2023-08-06T15:44:43;18.10;99.90
33673;DHT22;20011;51.510;9.942;2023-08-06T15:47:10;18.10;99.90
33673;DHT22;20011;51.510;9.942;2023-08-06T15:49:39;18.10;99.90
33673;DHT22;20011;51.510;9.942;2023-08-06T15:52:06;18.10;99.90
33673;DHT22;20011;51.510;9.942;2023-08-06T15:54:33;18.00;99.90
33673;DHT22;20011;51.510;9.942;2023-08-06T15:57:00;18.00;99.90